Skip to main content

Funchal

ID 1200522 · 32.6479, -16.8880 map

Latest reading · 2026-05-09 19:00 (Europe/Lisbon)

Temperature
18.9 °C
Humidity
63 %
Pressure
1,013.9 hPa
Precipitation
0.0 mm
Radiation
1,262 W/m²
Wind speed
15.5 km/h
Wind direction
W · West

24-hour history

Time (Europe/Lisbon) Temp Humidity Pressure Rain Wind Dir
2026-05-09 19:00 18.9 °C 63 % 1,013.9 0.0 mm 15.5 km/h W
2026-05-09 18:00 19.2 °C 63 % 1,013.8 0.0 mm 17.3 km/h W
2026-05-09 17:00 19.7 °C 61 % 1,013.4 0.0 mm 15.8 km/h W
2026-05-09 16:00 20.0 °C 56 % 1,013.4 0.0 mm 16.6 km/h W
2026-05-09 15:00 20.5 °C 54 % 1,013.1 0.0 mm 20.2 km/h W
2026-05-09 14:00 20.2 °C 57 % 1,013.0 0.0 mm 22.0 km/h W
2026-05-09 13:00 20.2 °C 57 % 1,012.7 0.0 mm 20.2 km/h W
2026-05-09 12:00 19.6 °C 60 % 1,012.6 0.0 mm 21.2 km/h W
2026-05-09 11:00 19.1 °C 60 % 1,012.4 0.0 mm 22.7 km/h W
2026-05-09 10:00 18.3 °C 63 % 1,012.1 0.0 mm 19.8 km/h W
2026-05-09 09:00 16.4 °C 65 % 1,011.8 0.0 mm 9.7 km/h W
2026-05-09 08:00 15.6 °C 67 % 1,011.2 0.0 mm 5.0 km/h NW
2026-05-09 07:00 15.8 °C 68 % 1,010.6 0.0 mm 5.4 km/h N
2026-05-09 06:00 15.8 °C 69 % 1,010.5 0.0 mm 4.0 km/h NW
2026-05-09 05:00 15.9 °C 70 % 1,010.5 0.0 mm 4.7 km/h N
2026-05-09 04:00 16.1 °C 65 % 1,010.4 0.0 mm 4.7 km/h N
2026-05-09 03:00 16.2 °C 65 % 1,010.5 0.0 mm 5.8 km/h N
2026-05-09 02:00 16.3 °C 66 % 1,010.5 0.0 mm 4.3 km/h NE
2026-05-09 01:00 16.8 °C 65 % 1,010.6 0.0 mm 4.0 km/h N
2026-05-09 00:00 16.8 °C 67 % 1,010.3 0.0 mm 5.0 km/h NW
2026-05-08 23:00 16.9 °C 67 % 1,009.8 0.0 mm 5.8 km/h W
2026-05-08 22:00 17.1 °C 70 % 1,008.8 0.0 mm 5.8 km/h SE
2026-05-08 21:00 16.8 °C 73 % 1,008.1 0.1 mm 13.7 km/h W
2026-05-08 20:00 17.3 °C 71 % 1,008.1 0.3 mm 16.9 km/h W